Time;durP1;ratioP1;P1;durP2;ratioP2;P2;SDS_P1;SDS_P2;PMS_P1;PMS_P2;Temp;Humidity;BMP_temperature;BMP_pressure;BME280_temperature;BME280_humidity;BME280_pressure;Samples;Min_cycle;Max_cycle;Signal;HPM_P1;HPM_P2
2022/09/06 00:00:39;;;;;;;5.80;2.00;;;;;;;;;;110963;1248;33480;-31
2022/09/06 00:03:10;;;;;;;3.50;1.60;;;;;;;;;;110953;1248;33266;-31
2022/09/06 00:05:42;;;;;;;4.80;1.90;;;;;;;;;;111016;1247;32282;-31
2022/09/06 00:08:14;;;;;;;3.90;1.80;;;;;;;;;;110995;1248;34643;-31
2022/09/06 00:10:45;;;;;;;4.40;1.90;;;;;;;;;;111010;1244;35625;-31
2022/09/06 00:13:20;;;;;;;4.00;1.80;;;;;;;;;;110988;1248;34806;-31
2022/09/06 00:15:51;;;;;;;5.80;2.20;;;;;;;;;;110980;1240;35298;-31
2022/09/06 00:18:23;;;;;;;4.40;2.20;;;;;;;;;;111016;1245;34012;-31
2022/09/06 00:20:53;;;;;;;3.40;1.50;;;;;;;;;;110993;1248;34755;-31
2022/09/06 00:23:24;;;;;;;4.30;1.70;;;;;;;;;;111001;1243;34753;-31
2022/09/06 00:26:03;;;;;;;4.00;1.60;;;;;;;;;;110995;1241;34682;-31
2022/09/06 00:28:39;;;;;;;4.10;1.90;;;;;;;;;;110999;1242;33326;-31
2022/09/06 00:31:12;;;;;;;3.80;1.70;;;;;;;;;;110975;1248;33408;-31
2022/09/06 00:33:43;;;;;;;4.00;1.90;;;;;;;;;;111009;1244;33265;-31
2022/09/06 00:36:14;;;;;;;4.50;2.00;;;;;;;;;;110996;1242;34068;-31
2022/09/06 00:38:46;;;;;;;3.70;1.70;;;;;;;;;;110987;1248;35093;-31
2022/09/06 00:41:18;;;;;;;3.70;1.70;;;;;;;;;;111005;1248;34655;-31
2022/09/06 00:43:49;;;;;;;4.90;1.80;;;;;;;;;;111026;1242;33458;-31
2022/09/06 00:46:23;;;;;;;4.00;1.60;;;;;;;;;;111010;1244;33376;-31
2022/09/06 00:48:57;;;;;;;3.60;1.70;;;;;;;;;;110989;1246;33054;-31
2022/09/06 00:51:29;;;;;;;3.80;1.70;;;;;;;;;;111015;1248;33046;-31
2022/09/06 00:54:02;;;;;;;3.50;1.60;;;;;;;;;;111013;1248;34671;-31
2022/09/06 00:56:32;;;;;;;;;;;;;;;;;;111022;1248;34738;-31
2022/09/06 00:59:04;;;;;;;3.80;1.70;;;;;;;;;;111009;1248;34604;-31
2022/09/06 01:01:35;;;;;;;4.10;1.60;;;;;;;;;;110992;1244;33162;-31
2022/09/06 01:04:06;;;;;;;3.20;1.50;;;;;;;;;;110988;1248;35039;-31
2022/09/06 01:06:44;;;;;;;4.20;1.70;;;;;;;;;;111006;1248;34562;-31
2022/09/06 01:09:23;;;;;;;5.10;1.50;;;;;;;;;;111013;1244;34597;-31
2022/09/06 01:12:04;;;;;;;4.00;1.80;;;;;;;;;;110994;1243;33035;-31
2022/09/06 01:14:49;;;;;;;3.80;1.50;;;;;;;;;;110974;1247;35224;-31
2022/09/06 01:17:29;;;;;;;3.80;1.60;;;;;;;;;;111001;1248;33413;-31
2022/09/06 01:20:41;;;;;;;3.60;1.80;;;;;;;;;;110985;1248;34821;-31
2022/09/06 01:23:56;;;;;;;3.50;1.60;;;;;;;;;;111004;1244;33040;-31
2022/09/06 01:27:02;;;;;;;3.20;1.50;;;;;;;;;;110619;1251;34946;-31
2022/09/06 01:29:36;;;;;;;3.60;1.60;;;;;;;;;;110807;1244;33524;-31
2022/09/06 01:32:18;;;;;;;3.80;1.40;;;;;;;;;;110998;1248;34949;-31
2022/09/06 01:34:54;;;;;;;4.30;1.70;;;;;;;;;;111023;1248;35199;-31
2022/09/06 01:37:25;;;;;;;4.20;1.30;;;;;;;;;;110976;1247;34784;-31
2022/09/06 01:39:55;;;;;;;3.70;1.70;;;;;;;;;;111009;1244;33322;-31
2022/09/06 01:42:28;;;;;;;3.90;1.50;;;;;;;;;;110996;1245;35141;-31
2022/09/06 01:45:01;;;;;;;3.50;1.30;;;;;;;;;;110996;1248;33101;-31
2022/09/06 01:47:41;;;;;;;3.80;1.50;;;;;;;;;;110973;1241;34598;-31
2022/09/06 01:50:42;;;;;;;3.00;1.40;;;;;;;;;;110990;1248;33593;-31
2022/09/06 01:53:26;;;;;;;3.80;1.40;;;;;;;;;;110998;1248;35176;-31
2022/09/06 01:56:04;;;;;;;3.90;1.50;;;;;;;;;;111001;1244;35151;-31
2022/09/06 01:58:57;;;;;;;4.10;1.50;;;;;;;;;;111005;1248;34620;-31
2022/09/06 02:01:30;;;;;;;3.50;1.20;;;;;;;;;;110991;1248;33439;-31
2022/09/06 02:04:07;;;;;;;3.00;1.40;;;;;;;;;;111007;1247;34670;-31
2022/09/06 02:06:41;;;;;;;3.70;1.50;;;;;;;;;;111010;1248;33148;-31
2022/09/06 02:09:15;;;;;;;3.30;1.20;;;;;;;;;;111012;1241;33441;-31
2022/09/06 02:11:49;;;;;;;3.70;1.30;;;;;;;;;;111006;1248;34124;-31
2022/09/06 02:14:24;;;;;;;3.00;1.20;;;;;;;;;;111008;1248;34892;-31
2022/09/06 02:16:56;;;;;;;3.50;1.20;;;;;;;;;;110993;1248;34685;-31
2022/09/06 02:19:33;;;;;;;3.30;1.40;;;;;;;;;;110998;1245;33515;-31
2022/09/06 02:22:06;;;;;;;3.40;1.40;;;;;;;;;;110984;1244;33948;-31
2022/09/06 02:24:39;;;;;;;2.50;1.10;;;;;;;;;;110983;1248;35150;-31
2022/09/06 02:27:11;;;;;;;2.70;1.00;;;;;;;;;;110979;1247;33063;-31
2022/09/06 02:29:42;;;;;;;4.80;1.30;;;;;;;;;;111003;1248;34723;-31
2022/09/06 02:32:17;;;;;;;3.40;1.20;;;;;;;;;;110982;1243;33652;-31
2022/09/06 02:34:49;;;;;;;2.40;1.00;;;;;;;;;;110730;1249;33443;-31
2022/09/06 02:37:20;;;;;;;2.70;1.00;;;;;;;;;;110990;1248;33502;-31
2022/09/06 02:39:52;;;;;;;3.00;1.10;;;;;;;;;;110999;1248;34793;-31
2022/09/06 02:42:24;;;;;;;2.70;1.10;;;;;;;;;;111030;1241;33994;-31
2022/09/06 02:44:57;;;;;;;2.90;1.30;;;;;;;;;;110994;1248;34707;-31
2022/09/06 02:47:28;;;;;;;3.10;1.30;;;;;;;;;;111005;1242;34676;-31
2022/09/06 02:49:58;;;;;;;3.30;1.20;;;;;;;;;;110984;1249;33602;-31
2022/09/06 02:52:29;;;;;;;2.80;1.00;;;;;;;;;;110983;1248;34104;-31
2022/09/06 02:55:00;;;;;;;2.60;1.00;;;;;;;;;;110973;1247;35122;-31
2022/09/06 02:57:31;;;;;;;2.90;1.20;;;;;;;;;;110979;1248;33061;-31
2022/09/06 03:00:04;;;;;;;2.80;1.10;;;;;;;;;;111006;1242;34009;-31
2022/09/06 03:02:38;;;;;;;2.70;1.00;;;;;;;;;;110989;1248;34617;-31
2022/09/06 03:05:10;;;;;;;2.90;1.10;;;;;;;;;;110974;1248;33044;-32
2022/09/06 03:07:41;;;;;;;3.50;1.10;;;;;;;;;;111028;1241;33558;-31
2022/09/06 03:10:14;;;;;;;3.90;1.60;;;;;;;;;;110982;1245;35138;-31
2022/09/06 03:12:46;;;;;;;3.80;1.30;;;;;;;;;;110982;1242;33386;-31
2022/09/06 03:15:17;;;;;;;2.90;1.20;;;;;;;;;;110992;1249;35069;-31
2022/09/06 03:17:48;;;;;;;3.20;1.20;;;;;;;;;;110991;1244;35065;-31
2022/09/06 03:20:19;;;;;;;2.50;1.20;;;;;;;;;;110982;1242;33384;-31
2022/09/06 03:22:50;;;;;;;3.20;1.20;;;;;;;;;;111003;1248;33916;-31
2022/09/06 03:25:21;;;;;;;2.90;1.20;;;;;;;;;;110987;1245;33162;-31
2022/09/06 03:27:52;;;;;;;2.60;1.00;;;;;;;;;;111015;1249;34002;-31
2022/09/06 03:30:23;;;;;;;3.40;1.50;;;;;;;;;;110995;1248;34016;-31
2022/09/06 03:32:54;;;;;;;2.70;1.30;;;;;;;;;;111003;1241;33200;-31
2022/09/06 03:35:27;;;;;;;2.60;1.00;;;;;;;;;;110991;1247;34700;-31
2022/09/06 03:37:56;;;;;;;;;;;;;;;;;;111017;1244;33003;-31
2022/09/06 03:40:27;;;;;;;3.60;1.30;;;;;;;;;;111007;1248;35076;-31
2022/09/06 03:42:58;;;;;;;3.20;1.10;;;;;;;;;;110978;1248;33513;-31
2022/09/06 03:45:29;;;;;;;4.40;1.30;;;;;;;;;;110988;1243;34642;-31
2022/09/06 03:48:00;;;;;;;3.20;1.30;;;;;;;;;;110995;1243;34640;-32
2022/09/06 03:50:33;;;;;;;2.70;1.10;;;;;;;;;;110754;1245;33065;-31
2022/09/06 03:53:04;;;;;;;2.80;1.30;;;;;;;;;;111017;1248;34766;-31
2022/09/06 03:55:38;;;;;;;2.60;1.20;;;;;;;;;;110991;1248;35119;-31
2022/09/06 03:58:09;;;;;;;2.70;1.10;;;;;;;;;;111003;1245;33890;-31
2022/09/06 04:00:40;;;;;;;3.20;1.10;;;;;;;;;;110996;1247;33380;-31
2022/09/06 04:03:11;;;;;;;2.70;1.00;;;;;;;;;;110995;1241;33566;-31
2022/09/06 04:05:46;;;;;;;3.10;1.40;;;;;;;;;;110987;1248;34101;-31
2022/09/06 04:08:18;;;;;;;3.20;1.20;;;;;;;;;;111013;1248;35381;-31
2022/09/06 04:10:51;;;;;;;4.10;1.20;;;;;;;;;;110976;1245;33196;-31
2022/09/06 04:13:22;;;;;;;3.40;1.30;;;;;;;;;;111015;1245;34732;-31
2022/09/06 04:15:53;;;;;;;2.90;1.20;;;;;;;;;;111007;1249;34203;-31
2022/09/06 04:18:25;;;;;;;2.80;1.10;;;;;;;;;;110746;1249;33379;-31
2022/09/06 04:20:57;;;;;;;3.50;1.40;;;;;;;;;;110987;1249;33671;-31
2022/09/06 04:23:28;;;;;;;2.40;0.90;;;;;;;;;;110993;1248;34821;-31
2022/09/06 04:26:00;;;;;;;3.20;1.30;;;;;;;;;;110985;1244;34000;-31
2022/09/06 04:28:36;;;;;;;4.00;1.30;;;;;;;;;;110990;1249;35070;-31
2022/09/06 04:31:07;;;;;;;2.80;1.20;;;;;;;;;;111014;1249;34783;-31
2022/09/06 04:33:38;;;;;;;3.80;1.10;;;;;;;;;;110998;1248;33544;-31
2022/09/06 04:36:13;;;;;;;3.60;1.50;;;;;;;;;;111019;1248;33897;-31
2022/09/06 04:38:44;;;;;;;3.00;1.40;;;;;;;;;;111004;1248;35067;-31
2022/09/06 04:41:19;;;;;;;3.70;1.30;;;;;;;;;;110994;1242;34648;-31
2022/09/06 04:43:51;;;;;;;3.30;1.30;;;;;;;;;;111013;1248;34010;-31
2022/09/06 04:46:24;;;;;;;3.50;1.20;;;;;;;;;;110997;1248;33836;-31
2022/09/06 04:48:56;;;;;;;4.40;1.20;;;;;;;;;;110997;1248;34618;-31
2022/09/06 04:51:28;;;;;;;3.90;1.20;;;;;;;;;;110997;1250;33409;-31
2022/09/06 04:53:59;;;;;;;4.30;1.30;;;;;;;;;;110999;1248;33006;-31
2022/09/06 04:56:32;;;;;;;3.80;1.30;;;;;;;;;;111007;1248;33034;-31
2022/09/06 04:59:03;;;;;;;5.90;1.60;;;;;;;;;;110977;1249;33076;-31
2022/09/06 05:01:34;;;;;;;3.20;1.30;;;;;;;;;;110979;1248;33184;-31
2022/09/06 05:04:06;;;;;;;2.90;1.30;;;;;;;;;;110985;1240;35452;-31
2022/09/06 05:06:40;;;;;;;4.30;1.40;;;;;;;;;;110992;1249;33405;-31
2022/09/06 05:09:11;;;;;;;3.70;1.40;;;;;;;;;;111002;1241;33435;-31
2022/09/06 05:11:46;;;;;;;4.40;1.30;;;;;;;;;;110990;1249;33834;-31
2022/09/06 05:14:17;;;;;;;3.80;1.40;;;;;;;;;;110988;1242;34148;-31
2022/09/06 05:16:49;;;;;;;3.70;1.30;;;;;;;;;;110996;1248;33365;-31
2022/09/06 05:19:20;;;;;;;4.50;1.40;;;;;;;;;;110974;1249;33961;-31
2022/09/06 05:21:53;;;;;;;4.40;1.40;;;;;;;;;;110982;1248;35392;-31
2022/09/06 05:24:24;;;;;;;3.50;1.40;;;;;;;;;;110966;1248;34486;-31
2022/09/06 05:26:55;;;;;;;4.30;1.30;;;;;;;;;;110990;1248;35092;-31
2022/09/06 05:29:26;;;;;;;4.50;1.40;;;;;;;;;;111000;1248;33636;-31
2022/09/06 05:31:57;;;;;;;4.30;1.60;;;;;;;;;;110978;1248;34049;-31
2022/09/06 05:34:28;;;;;;;4.70;1.60;;;;;;;;;;111031;1248;35002;-31
2022/09/06 05:36:58;;;;;;;6.20;1.50;;;;;;;;;;110984;1241;33117;-31
2022/09/06 05:39:30;;;;;;;3.40;1.30;;;;;;;;;;110983;1245;34772;-31
2022/09/06 05:42:05;;;;;;;3.40;1.40;;;;;;;;;;110998;1244;33980;-31
2022/09/06 05:44:36;;;;;;;4.20;1.40;;;;;;;;;;110991;1245;35245;-31
2022/09/06 05:47:08;;;;;;;4.50;1.50;;;;;;;;;;111039;1249;33607;-31
2022/09/06 05:49:39;;;;;;;4.90;1.50;;;;;;;;;;110975;1242;33885;-31
2022/09/06 05:52:11;;;;;;;3.60;1.20;;;;;;;;;;111044;1241;33983;-31
2022/09/06 05:54:42;;;;;;;4.30;1.30;;;;;;;;;;110968;1241;34670;-31
2022/09/06 05:57:13;;;;;;;4.10;1.50;;;;;;;;;;110982;1245;33586;-31
2022/09/06 05:59:44;;;;;;;4.70;1.40;;;;;;;;;;111008;1248;35148;-31
2022/09/06 06:02:15;;;;;;;4.10;1.50;;;;;;;;;;110940;1248;33983;-31
2022/09/06 06:04:46;;;;;;;3.90;1.60;;;;;;;;;;110972;1241;35138;-31
2022/09/06 06:07:18;;;;;;;4.20;1.50;;;;;;;;;;111004;1245;34667;-31
2022/09/06 06:09:49;;;;;;;4.10;1.40;;;;;;;;;;111005;1249;33857;-31
2022/09/06 06:12:20;;;;;;;3.50;1.40;;;;;;;;;;110993;1248;34605;-31
2022/09/06 06:14:53;;;;;;;3.80;1.40;;;;;;;;;;111002;1248;34892;-31
2022/09/06 06:17:24;;;;;;;2.80;1.30;;;;;;;;;;111003;1248;34847;-31
2022/09/06 06:19:55;;;;;;;3.90;1.60;;;;;;;;;;111005;1244;34082;-31
2022/09/06 06:22:28;;;;;;;3.10;1.20;;;;;;;;;;110986;1244;35156;-31
2022/09/06 06:25:00;;;;;;;3.80;1.50;;;;;;;;;;110620;1248;534698;-31
2022/09/06 06:27:32;;;;;;;3.20;1.30;;;;;;;;;;110999;1248;34537;-31
2022/09/06 06:30:04;;;;;;;4.30;1.40;;;;;;;;;;111035;1241;34101;-31
2022/09/06 06:32:35;;;;;;;7.60;1.70;;;;;;;;;;111005;1245;34815;-31
2022/09/06 06:35:09;;;;;;;6.70;1.60;;;;;;;;;;111018;1248;35078;-31
2022/09/06 06:37:41;;;;;;;4.60;1.50;;;;;;;;;;110978;1248;34533;-31
2022/09/06 06:40:13;;;;;;;5.20;1.50;;;;;;;;;;110989;1249;34708;-31
2022/09/06 06:42:46;;;;;;;6.20;2.20;;;;;;;;;;111014;1241;33145;-31
2022/09/06 06:45:16;;;;;;;;;;;;;;;;;;111027;1244;34695;-31
2022/09/06 06:47:51;;;;;;;5.90;1.70;;;;;;;;;;110995;1241;34312;-31
2022/09/06 06:50:22;;;;;;;7.20;1.90;;;;;;;;;;111008;1248;35307;-31
2022/09/06 06:52:53;;;;;;;5.40;1.80;;;;;;;;;;110986;1248;33140;-31
2022/09/06 06:55:24;;;;;;;4.70;1.70;;;;;;;;;;110922;1241;33694;-33
2022/09/06 06:57:55;;;;;;;4.70;1.50;;;;;;;;;;110944;1245;34211;-31
2022/09/06 07:00:26;;;;;;;4.60;1.70;;;;;;;;;;110951;1248;34703;-32
2022/09/06 07:02:58;;;;;;;6.40;1.70;;;;;;;;;;110982;1248;34726;-33
2022/09/06 07:05:34;;;;;;;5.80;1.80;;;;;;;;;;110976;1248;34096;-32
2022/09/06 07:08:10;;;;;;;4.00;1.50;;;;;;;;;;110959;1241;34694;-32
2022/09/06 07:10:41;;;;;;;6.20;1.80;;;;;;;;;;110978;1241;34927;-32
2022/09/06 07:13:12;;;;;;;4.30;1.50;;;;;;;;;;110704;1245;34822;-32
2022/09/06 07:15:44;;;;;;;4.20;1.30;;;;;;;;;;110984;1248;33890;-33
2022/09/06 07:18:17;;;;;;;6.80;1.60;;;;;;;;;;110984;1248;34019;-33
2022/09/06 07:20:48;;;;;;;5.30;1.70;;;;;;;;;;111007;1248;33088;-33
2022/09/06 07:23:19;;;;;;;5.60;1.60;;;;;;;;;;111002;1241;34782;-33
2022/09/06 07:25:49;;;;;;;3.80;1.20;;;;;;;;;;110979;1243;34601;-33
2022/09/06 07:28:22;;;;;;;3.50;1.20;;;;;;;;;;110955;1248;34620;-33
2022/09/06 07:30:55;;;;;;;3.60;1.20;;;;;;;;;;110997;1248;35025;-32
2022/09/06 07:33:29;;;;;;;4.30;1.20;;;;;;;;;;110997;1244;33968;-33
2022/09/06 07:36:03;;;;;;;4.40;1.40;;;;;;;;;;110964;1248;33453;-32
2022/09/06 07:38:35;;;;;;;4.00;1.00;;;;;;;;;;110987;1241;35009;-32
2022/09/06 07:41:09;;;;;;;3.40;1.20;;;;;;;;;;110988;1248;35055;-31
2022/09/06 07:43:40;;;;;;;3.60;1.20;;;;;;;;;;111001;1241;33464;-31
2022/09/06 07:46:13;;;;;;;3.70;1.30;;;;;;;;;;111021;1248;33994;-33
2022/09/06 07:48:50;;;;;;;2.90;0.90;;;;;;;;;;110990;1248;33527;-32
2022/09/06 07:51:21;;;;;;;3.40;1.20;;;;;;;;;;110985;1242;33206;-33
2022/09/06 07:53:56;;;;;;;3.70;1.20;;;;;;;;;;110989;1247;33536;-31
2022/09/06 07:56:29;;;;;;;2.90;0.90;;;;;;;;;;110973;1248;34774;-32
2022/09/06 07:59:00;;;;;;;3.20;1.00;;;;;;;;;;111023;1248;33224;-32
2022/09/06 08:01:34;;;;;;;2.60;0.80;;;;;;;;;;110963;1248;35171;-32
2022/09/06 08:04:09;;;;;;;3.10;0.90;;;;;;;;;;110984;1240;34897;-32
2022/09/06 08:06:41;;;;;;;2.60;0.90;;;;;;;;;;110986;1248;34123;-32
2022/09/06 08:09:13;;;;;;;2.80;0.90;;;;;;;;;;111018;1248;34482;-32
2022/09/06 08:11:49;;;;;;;3.20;1.00;;;;;;;;;;111017;1241;34986;-32
2022/09/06 08:14:21;;;;;;;2.50;0.90;;;;;;;;;;110991;1248;33406;-32
2022/09/06 08:16:52;;;;;;;2.60;0.80;;;;;;;;;;110975;1245;33940;-32
2022/09/06 08:19:24;;;;;;;3.40;1.00;;;;;;;;;;110989;1242;34723;-32
2022/09/06 08:21:58;;;;;;;3.90;0.90;;;;;;;;;;110976;1242;35062;-32
2022/09/06 08:24:34;;;;;;;3.90;0.80;;;;;;;;;;110996;1248;34497;-32
2022/09/06 08:27:06;;;;;;;3.80;1.00;;;;;;;;;;111004;1244;34647;-32
2022/09/06 08:29:38;;;;;;;3.50;0.90;;;;;;;;;;111031;1248;32669;-32
2022/09/06 08:32:12;;;;;;;2.50;0.90;;;;;;;;;;110978;1248;35132;-32
2022/09/06 08:34:41;;;;;;;;;;;;;;;;;;110996;1241;35165;-32
2022/09/06 08:37:12;;;;;;;2.70;0.90;;;;;;;;;;111023;1248;34012;-32
2022/09/06 08:39:43;;;;;;;3.00;0.90;;;;;;;;;;110988;1244;33334;-32
2022/09/06 08:42:14;;;;;;;2.80;0.80;;;;;;;;;;110979;1244;34519;-32
2022/09/06 08:44:49;;;;;;;2.80;0.90;;;;;;;;;;110997;1248;34812;-33
2022/09/06 08:47:21;;;;;;;3.40;1.10;;;;;;;;;;111004;1241;33881;-33
2022/09/06 08:49:55;;;;;;;3.00;0.80;;;;;;;;;;110996;1248;34508;-33
2022/09/06 08:52:39;;;;;;;3.10;0.80;;;;;;;;;;111010;1241;33009;-34
2022/09/06 08:55:29;;;;;;;2.10;0.80;;;;;;;;;;111006;1241;33411;-34
2022/09/06 08:58:10;;;;;;;2.90;0.70;;;;;;;;;;111029;1242;33838;-34
2022/09/06 09:01:00;;;;;;;2.40;0.70;;;;;;;;;;111001;1241;34808;-34
2022/09/06 09:03:35;;;;;;;2.80;1.10;;;;;;;;;;111012;1242;33592;-34
2022/09/06 09:06:10;;;;;;;2.70;0.90;;;;;;;;;;111011;1241;33410;-34
2022/09/06 09:08:47;;;;;;;3.40;0.80;;;;;;;;;;111032;1241;33109;-33
2022/09/06 09:11:20;;;;;;;2.50;0.80;;;;;;;;;;111005;1248;34758;-33
2022/09/06 09:13:58;;;;;;;2.10;0.70;;;;;;;;;;111005;1248;34142;-33
2022/09/06 09:16:32;;;;;;;3.10;0.90;;;;;;;;;;111014;1244;34046;-33
2022/09/06 09:19:04;;;;;;;2.00;0.90;;;;;;;;;;111008;1241;33363;-33
2022/09/06 09:21:36;;;;;;;1.90;0.70;;;;;;;;;;111032;1248;34566;-33
2022/09/06 09:24:09;;;;;;;1.90;0.60;;;;;;;;;;110991;1244;33568;-33
2022/09/06 09:26:52;;;;;;;2.80;0.70;;;;;;;;;;110983;1248;34788;-33
2022/09/06 09:29:22;;;;;;;;;;;;;;;;;;111030;1240;34715;-33
2022/09/06 09:31:54;;;;;;;2.80;0.80;;;;;;;;;;110976;1248;32660;-33
2022/09/06 09:34:33;;;;;;;2.70;0.80;;;;;;;;;;110974;1244;34723;-33
2022/09/06 09:37:18;;;;;;;3.20;0.70;;;;;;;;;;111049;1248;34840;-33
2022/09/06 09:39:50;;;;;;;3.20;0.70;;;;;;;;;;110969;1241;34123;-33
2022/09/06 09:42:28;;;;;;;3.70;0.80;;;;;;;;;;110997;1241;34919;-33
2022/09/06 09:45:00;;;;;;;2.80;0.70;;;;;;;;;;111000;1248;34545;-33
2022/09/06 09:47:33;;;;;;;3.10;0.70;;;;;;;;;;110991;1244;34840;-33
2022/09/06 09:50:21;;;;;;;2.00;0.60;;;;;;;;;;110998;1242;33998;-33
2022/09/06 09:52:55;;;;;;;2.30;1.00;;;;;;;;;;111021;1248;32794;-33
2022/09/06 09:55:29;;;;;;;2.90;0.70;;;;;;;;;;110990;1248;34571;-33
2022/09/06 09:58:00;;;;;;;1.40;0.50;;;;;;;;;;110995;1241;33251;-33
2022/09/06 10:00:38;;;;;;;2.40;0.70;;;;;;;;;;111000;1242;34710;-33
2022/09/06 10:03:19;;;;;;;2.70;0.90;;;;;;;;;;111011;1248;35141;-33
2022/09/06 10:05:59;;;;;;;2.00;0.60;;;;;;;;;;111013;1241;33329;-33
2022/09/06 10:08:33;;;;;;;2.60;0.60;;;;;;;;;;111032;1244;34186;-33
2022/09/06 10:11:06;;;;;;;2.10;0.60;;;;;;;;;;111013;1248;34642;-33
2022/09/06 10:13:37;;;;;;;2.80;0.70;;;;;;;;;;110991;1244;34630;-33
2022/09/06 10:16:09;;;;;;;1.40;0.60;;;;;;;;;;110981;1248;34678;-33
2022/09/06 10:18:42;;;;;;;1.80;0.60;;;;;;;;;;111008;1248;33388;-34
2022/09/06 10:21:17;;;;;;;2.00;0.60;;;;;;;;;;111019;1241;33003;-34
2022/09/06 10:24:04;;;;;;;3.30;0.70;;;;;;;;;;110982;1241;34716;-34
2022/09/06 10:26:43;;;;;;;2.60;0.90;;;;;;;;;;111001;1244;33660;-34
2022/09/06 10:29:16;;;;;;;2.50;0.80;;;;;;;;;;111010;1248;34416;-34
2022/09/06 10:32:09;;;;;;;2.30;0.70;;;;;;;;;;110995;1248;33238;-34
2022/09/06 10:35:03;;;;;;;1.80;0.60;;;;;;;;;;111022;1244;33986;-34
2022/09/06 10:37:46;;;;;;;1.40;0.60;;;;;;;;;;111021;1248;34076;-32
2022/09/06 10:40:26;;;;;;;1.70;0.60;;;;;;;;;;110986;1241;33040;-33
2022/09/06 10:43:00;;;;;;;3.30;1.30;;;;;;;;;;111006;1248;33563;-33
2022/09/06 10:45:44;;;;;;;2.80;0.70;;;;;;;;;;110996;1248;34747;-34
2022/09/06 10:48:19;;;;;;;1.60;0.40;;;;;;;;;;111036;1244;34674;-34
2022/09/06 10:50:55;;;;;;;2.10;0.70;;;;;;;;;;111018;1244;33987;-32
2022/09/06 10:53:36;;;;;;;2.00;0.70;;;;;;;;;;110998;1248;33594;-32
2022/09/06 10:56:10;;;;;;;1.60;0.50;;;;;;;;;;110989;1241;33703;-32
2022/09/06 10:58:48;;;;;;;2.20;0.70;;;;;;;;;;111002;1248;34740;-32
2022/09/06 11:01:27;;;;;;;2.10;0.70;;;;;;;;;;110991;1244;35099;-32
2022/09/06 11:04:00;;;;;;;2.00;0.70;;;;;;;;;;111060;1242;33999;-32
2022/09/06 11:06:35;;;;;;;2.50;0.70;;;;;;;;;;110994;1248;32374;-32
2022/09/06 11:09:11;;;;;;;1.70;0.60;;;;;;;;;;111017;1248;33470;-32
2022/09/06 11:11:45;;;;;;;2.80;0.70;;;;;;;;;;110982;1248;34769;-32
2022/09/06 11:14:18;;;;;;;2.50;0.70;;;;;;;;;;111024;1244;35105;-33
2022/09/06 11:16:49;;;;;;;;;;;;;;;;;;111034;1241;33016;-34
2022/09/06 11:19:23;;;;;;;2.40;0.60;;;;;;;;;;111029;1241;32826;-31
2022/09/06 11:22:15;;;;;;;1.70;0.60;;;;;;;;;;111029;1248;34873;-32
2022/09/06 11:25:17;;;;;;;2.60;0.70;;;;;;;;;;111016;1248;34340;-32
2022/09/06 11:27:51;;;;;;;1.10;0.60;;;;;;;;;;111004;1244;35129;-33
2022/09/06 11:30:24;;;;;;;2.30;0.60;;;;;;;;;;110972;1242;33381;-33
2022/09/06 11:33:11;;;;;;;2.20;0.60;;;;;;;;;;110994;1248;34844;-33
2022/09/06 11:35:43;;;;;;;2.20;0.70;;;;;;;;;;110993;1248;34540;-33
2022/09/06 11:38:23;;;;;;;1.90;0.60;;;;;;;;;;111003;1248;33514;-33
2022/09/06 11:41:00;;;;;;;1.90;0.80;;;;;;;;;;111019;1240;33021;-33
2022/09/06 11:43:50;;;;;;;1.90;0.70;;;;;;;;;;111005;1241;33417;-33
2022/09/06 11:46:58;;;;;;;2.90;0.90;;;;;;;;;;111026;1248;34649;-33
2022/09/06 11:49:38;;;;;;;1.60;0.60;;;;;;;;;;110951;1241;34805;-34
2022/09/06 11:52:56;;;;;;;1.40;0.50;;;;;;;;;;111034;1248;35081;-34
2022/09/06 11:55:34;;;;;;;2.10;0.60;;;;;;;;;;111040;1240;33032;-32
2022/09/06 11:58:13;;;;;;;2.20;0.70;;;;;;;;;;111023;1244;34905;-32
2022/09/06 12:00:44;;;;;;;5.00;1.00;;;;;;;;;;110986;1240;34629;-32
2022/09/06 12:04:17;;;;;;;6.00;1.20;;;;;;;;;;110983;1248;33913;-32
2022/09/06 12:07:09;;;;;;;6.60;1.50;;;;;;;;;;110253;1257;34948;-32
2022/09/06 12:09:41;;;;;;;5.60;1.10;;;;;;;;;;110296;1249;34625;-33
2022/09/06 12:12:32;;;;;;;9.00;1.30;;;;;;;;;;110712;1248;34651;-33
2022/09/06 12:15:19;;;;;;;6.10;1.80;;;;;;;;;;110973;1242;34363;-33
2022/09/06 12:17:50;;;;;;;7.30;1.50;;;;;;;;;;111008;1248;33900;-33
2022/09/06 12:20:56;;;;;;;5.10;1.10;;;;;;;;;;110989;1248;34848;-33
2022/09/06 12:23:43;;;;;;;6.30;1.50;;;;;;;;;;111065;1248;34317;-33
2022/09/06 12:26:34;;;;;;;7.40;1.20;;;;;;;;;;111050;1241;34833;-33
2022/09/06 12:29:09;;;;;;;6.80;1.40;;;;;;;;;;110975;1248;35299;-34
2022/09/06 12:31:43;;;;;;;7.20;1.50;;;;;;;;;;111021;1248;33431;-34
2022/09/06 12:34:19;;;;;;;6.40;1.50;;;;;;;;;;110985;1244;33571;-34
2022/09/06 12:36:53;;;;;;;5.20;1.60;;;;;;;;;;111001;1248;34953;-34
2022/09/06 12:39:27;;;;;;;6.40;1.50;;;;;;;;;;111004;1241;34647;-34
2022/09/06 12:42:00;;;;;;;7.80;2.70;;;;;;;;;;111005;1244;34783;-34
2022/09/06 12:44:35;;;;;;;8.80;1.60;;;;;;;;;;110999;1248;33422;-34
2022/09/06 12:47:11;;;;;;;5.70;1.50;;;;;;;;;;111039;1240;34009;-34
2022/09/06 12:49:42;;;;;;;6.80;1.30;;;;;;;;;;110999;1245;33957;-34
2022/09/06 12:52:15;;;;;;;4.60;1.40;;;;;;;;;;110952;1248;35007;-34
2022/09/06 12:54:45;;;;;;;;;;;;;;;;;;111043;1242;34830;-32
2022/09/06 12:57:22;;;;;;;5.80;1.50;;;;;;;;;;110988;1241;34700;-32
2022/09/06 12:59:57;;;;;;;4.20;1.10;;;;;;;;;;110983;1248;32820;-32
2022/09/06 13:02:34;;;;;;;5.40;1.20;;;;;;;;;;111024;1240;34593;-32
2022/09/06 13:05:11;;;;;;;3.80;0.90;;;;;;;;;;110994;1241;33509;-33
2022/09/06 13:07:44;;;;;;;4.30;1.00;;;;;;;;;;111025;1240;34821;-33
2022/09/06 13:10:17;;;;;;;3.80;1.30;;;;;;;;;;110985;1248;33305;-33
2022/09/06 13:12:53;;;;;;;5.30;1.20;;;;;;;;;;111035;1248;34760;-33
2022/09/06 13:15:26;;;;;;;5.50;1.10;;;;;;;;;;110987;1241;33479;-34
2022/09/06 13:18:17;;;;;;;5.60;0.90;;;;;;;;;;111000;1241;34884;-32
2022/09/06 13:21:02;;;;;;;5.60;1.60;;;;;;;;;;111017;1240;34703;-34
2022/09/06 13:23:42;;;;;;;4.90;1.20;;;;;;;;;;111036;1241;34552;-34
2022/09/06 13:26:32;;;;;;;4.10;1.20;;;;;;;;;;110977;1248;34069;-34
2022/09/06 13:29:24;;;;;;;4.40;1.10;;;;;;;;;;111020;1248;33961;-34
2022/09/06 13:32:00;;;;;;;3.40;0.80;;;;;;;;;;110996;1245;34501;-33
2022/09/06 13:34:34;;;;;;;4.30;1.30;;;;;;;;;;110979;1248;33107;-33
2022/09/06 13:37:07;;;;;;;5.50;1.00;;;;;;;;;;111003;1241;33002;-33
2022/09/06 13:39:39;;;;;;;4.70;1.10;;;;;;;;;;111010;1248;34588;-33
2022/09/06 13:42:23;;;;;;;4.90;1.00;;;;;;;;;;110995;1242;32801;-33
2022/09/06 13:44:57;;;;;;;4.50;1.00;;;;;;;;;;111005;1248;34623;-33
2022/09/06 13:47:31;;;;;;;4.80;1.00;;;;;;;;;;111030;1242;33582;-33
2022/09/06 13:50:02;;;;;;;4.80;0.90;;;;;;;;;;110979;1241;33525;-33
2022/09/06 13:52:33;;;;;;;3.90;0.90;;;;;;;;;;111002;1248;34757;-32
2022/09/06 13:55:05;;;;;;;4.10;0.90;;;;;;;;;;111000;1248;33359;-34
2022/09/06 13:57:36;;;;;;;4.00;1.00;;;;;;;;;;111026;1241;33510;-34
2022/09/06 14:00:12;;;;;;;2.60;0.70;;;;;;;;;;111018;1241;33002;-32
2022/09/06 14:02:45;;;;;;;2.90;0.90;;;;;;;;;;110988;1248;34043;-32
2022/09/06 14:05:18;;;;;;;5.30;0.80;;;;;;;;;;111012;1248;34509;-33
2022/09/06 14:07:49;;;;;;;3.50;0.80;;;;;;;;;;110994;1248;34762;-32
2022/09/06 14:10:22;;;;;;;3.50;1.10;;;;;;;;;;111003;1241;33993;-34
2022/09/06 14:12:54;;;;;;;4.40;0.90;;;;;;;;;;111006;1248;34088;-33
2022/09/06 14:15:25;;;;;;;3.00;0.70;;;;;;;;;;110982;1248;34519;-34
2022/09/06 14:17:56;;;;;;;3.10;0.80;;;;;;;;;;111017;1248;33005;-34
2022/09/06 14:20:26;;;;;;;2.90;0.80;;;;;;;;;;110993;1244;33069;-34
2022/09/06 14:22:57;;;;;;;2.50;0.70;;;;;;;;;;110981;1242;33251;-34
2022/09/06 14:25:28;;;;;;;3.80;0.90;;;;;;;;;;110684;1248;437458;-34
2022/09/06 14:27:59;;;;;;;2.30;0.70;;;;;;;;;;111024;1241;33291;-34
2022/09/06 14:30:33;;;;;;;2.10;0.60;;;;;;;;;;110985;1248;34511;-34
2022/09/06 14:33:04;;;;;;;2.60;0.70;;;;;;;;;;110999;1248;33206;-34
2022/09/06 14:35:35;;;;;;;2.60;0.60;;;;;;;;;;111005;1248;34063;-34
2022/09/06 14:38:06;;;;;;;1.90;0.60;;;;;;;;;;110984;1245;33528;-34
2022/09/06 14:40:39;;;;;;;2.00;0.60;;;;;;;;;;110984;1248;34137;-34
2022/09/06 14:43:09;;;;;;;3.70;0.90;;;;;;;;;;110985;1248;35042;-34
2022/09/06 14:45:40;;;;;;;2.20;0.60;;;;;;;;;;110978;1245;34874;-34
2022/09/06 14:48:11;;;;;;;3.90;0.70;;;;;;;;;;110999;1243;35235;-32
2022/09/06 14:50:41;;;;;;;2.80;0.90;;;;;;;;;;111018;1241;33079;-32
2022/09/06 14:53:14;;;;;;;1.20;0.60;;;;;;;;;;111010;1248;34339;-34
2022/09/06 14:55:45;;;;;;;2.50;0.80;;;;;;;;;;111000;1248;32993;-34
2022/09/06 14:58:16;;;;;;;1.50;0.60;;;;;;;;;;110996;1245;34700;-34
2022/09/06 15:00:48;;;;;;;1.60;0.60;;;;;;;;;;110998;1245;34372;-34
2022/09/06 15:03:23;;;;;;;2.50;0.60;;;;;;;;;;110977;1240;33101;-35
2022/09/06 15:05:54;;;;;;;2.30;0.50;;;;;;;;;;111013;1248;34873;-35
2022/09/06 15:08:27;;;;;;;4.60;0.80;;;;;;;;;;110682;1251;34092;-36
2022/09/06 15:10:58;;;;;;;3.60;0.70;;;;;;;;;;110984;1243;33480;-35
2022/09/06 15:13:29;;;;;;;2.30;0.60;;;;;;;;;;110995;1245;34752;-36
2022/09/06 15:15:59;;;;;;;2.30;0.80;;;;;;;;;;110992;1248;35868;-35